Time;durP1;ratioP1;P1;durP2;ratioP2;P2;SDS_P1;SDS_P2;PMS_P1;PMS_P2;Temp;Humidity;BMP_temperature;BMP_pressure;BME280_temperature;BME280_humidity;BME280_pressure;Samples;Min_cycle;Max_cycle;Signal;HPM_P1;HPM_P2
2023/10/19 00:00:36;;;;;;;412.30;157.27;;;;;;;;;;5014358;28;20458;-78
2023/10/19 00:03:02;;;;;;;404.63;152.67;;;;;;;;;;5016162;28;20244;-80
2023/10/19 00:05:34;;;;;;;442.10;174.77;;;;;;;;;;5017107;28;20212;-78
2023/10/19 00:08:05;;;;;;;413.60;155.27;;;;;;;;;;5014882;28;20232;-79
2023/10/19 00:10:37;;;;;;;410.77;154.23;;;;;;;;;;5018916;28;20173;-78
2023/10/19 00:13:08;;;;;;;412.97;153.80;;;;;;;;;;5013596;28;20208;-80
2023/10/19 00:15:37;;;;;;;406.63;151.90;;;;;;;;;;5016699;28;21229;-80
2023/10/19 00:23:13;;;;;;;400.53;149.67;;;;;;;;;;5017113;28;20212;-79
2023/10/19 00:25:41;;;;;;;394.03;147.90;;;;;;;;;;5015776;28;20188;-79
2023/10/19 00:28:07;;;;;;;405.37;154.40;;;;;;;;;;5014209;28;20185;-82
2023/10/19 00:30:35;;;;;;;406.87;153.17;;;;;;;;;;5015802;28;20273;-81
2023/10/19 00:33:03;;;;;;;402.00;148.43;;;;;;;;;;5020731;28;20236;-79
2023/10/19 00:35:41;;;;;;;432.00;166.17;;;;;;;;;;5013667;28;20227;-80
2023/10/19 00:40:52;;;;;;;381.57;143.33;;;;;;;;;;5013012;28;20227;-82
2023/10/19 00:43:32;;;;;;;402.03;154.60;;;;;;;;;;5015339;28;20555;-83
2023/10/19 00:45:58;;;;;;;411.57;153.23;;;;;;;;;;5016911;28;20262;-81
2023/10/19 00:48:26;;;;;;;419.27;157.97;;;;;;;;;;5014824;28;20234;-81
2023/10/19 00:50:53;;;;;;;392.93;144.73;;;;;;;;;;5010685;28;20887;-79
2023/10/19 00:53:20;;;;;;;432.10;167.77;;;;;;;;;;5013561;28;20223;-82
2023/10/19 00:55:46;;;;;;;388.73;145.27;;;;;;;;;;5017715;28;20824;-78
2023/10/19 00:58:22;;;;;;;387.53;146.67;;;;;;;;;;5015297;28;20393;-82
2023/10/19 01:00:50;;;;;;;392.97;150.20;;;;;;;;;;5016293;28;20251;-79
2023/10/19 01:03:17;;;;;;;418.47;155.47;;;;;;;;;;5013619;28;20227;-82
2023/10/19 01:05:47;;;;;;;400.30;150.97;;;;;;;;;;5016806;28;20265;-87
2023/10/19 01:08:32;;;;;;;398.33;147.83;;;;;;;;;;5013667;28;20658;-82
2023/10/19 01:10:59;;;;;;;391.70;150.27;;;;;;;;;;5018206;28;20215;-78
2023/10/19 01:13:34;;;;;;;394.63;150.70;;;;;;;;;;5012646;28;20217;-81
2023/10/19 01:16:00;;;;;;;398.30;152.17;;;;;;;;;;5018120;28;20215;-80
2023/10/19 01:18:32;;;;;;;417.90;161.60;;;;;;;;;;5022106;28;20213;-80
2023/10/19 01:21:02;;;;;;;383.37;144.47;;;;;;;;;;5016800;28;20223;-81
2023/10/19 01:23:28;;;;;;;422.00;164.97;;;;;;;;;;5010964;28;20220;-78
2023/10/19 01:29:14;;;;;;;415.67;164.10;;;;;;;;;;5019127;28;20223;-81
2023/10/19 01:31:16;;;;;;;433.23;170.63;;;;;;;;;;5006630;28;20665;-82
2023/10/19 01:33:43;;;;;;;427.00;163.47;;;;;;;;;;5015186;28;20215;-81
2023/10/19 01:36:43;;;;;;;428.20;165.97;;;;;;;;;;5015210;28;20595;-81
2023/10/19 01:39:09;;;;;;;406.87;158.67;;;;;;;;;;5012717;28;20706;-80
2023/10/19 01:41:35;;;;;;;428.77;163.00;;;;;;;;;;5015201;28;20216;-80
2023/10/19 01:44:04;;;;;;;413.43;160.70;;;;;;;;;;5014749;28;20228;-79
2023/10/19 01:46:33;;;;;;;444.03;174.40;;;;;;;;;;5011119;28;20317;-79
2023/10/19 01:49:01;;;;;;;405.63;156.57;;;;;;;;;;5013579;28;20188;-85
2023/10/19 01:51:28;;;;;;;413.17;158.83;;;;;;;;;;5011415;28;20267;-85
2023/10/19 01:53:55;;;;;;;388.33;146.53;;;;;;;;;;5012828;28;20224;-80
2023/10/19 01:56:21;;;;;;;425.33;161.60;;;;;;;;;;5016307;28;20310;-78
2023/10/19 01:58:48;;;;;;;381.50;141.07;;;;;;;;;;5016875;28;20895;-78
2023/10/19 02:01:20;;;;;;;422.43;160.77;;;;;;;;;;5013967;28;20185;-87
2023/10/19 02:03:47;;;;;;;408.77;151.87;;;;;;;;;;5018027;28;20215;-80
2023/10/19 02:06:17;;;;;;;415.07;160.83;;;;;;;;;;5014342;28;20251;-79
2023/10/19 02:08:48;;;;;;;418.33;160.73;;;;;;;;;;5014072;28;20220;-79
2023/10/19 02:11:18;;;;;;;409.67;155.23;;;;;;;;;;5016974;28;20315;-80
2023/10/19 02:13:47;;;;;;;392.67;149.73;;;;;;;;;;5015533;28;20216;-79
2023/10/19 02:16:18;;;;;;;402.80;153.57;;;;;;;;;;5016212;28;20250;-78
2023/10/19 02:18:44;;;;;;;434.57;169.57;;;;;;;;;;5015521;28;20240;-79
2023/10/19 02:21:12;;;;;;;395.63;149.03;;;;;;;;;;5017516;28;20251;-80
2023/10/19 02:23:39;;;;;;;423.83;158.03;;;;;;;;;;5019625;28;20231;-83
2023/10/19 02:26:05;;;;;;;408.83;156.63;;;;;;;;;;5017701;28;20376;-83
2023/10/19 02:28:31;;;;;;;421.57;163.40;;;;;;;;;;5021014;28;20192;-78
2023/10/19 02:31:10;;;;;;;392.97;149.87;;;;;;;;;;5018525;28;20190;-77
2023/10/19 02:33:36;;;;;;;457.70;178.90;;;;;;;;;;5017183;28;20220;-76
2023/10/19 02:36:03;;;;;;;436.90;169.97;;;;;;;;;;5016959;28;20230;-77
2023/10/19 02:38:29;;;;;;;475.80;190.40;;;;;;;;;;5017585;28;20215;-77
2023/10/19 02:40:56;;;;;;;411.13;154.33;;;;;;;;;;5015251;28;20217;-77
2023/10/19 02:43:24;;;;;;;444.20;175.10;;;;;;;;;;5015972;28;20215;-76
2023/10/19 02:45:51;;;;;;;425.27;158.43;;;;;;;;;;5018492;28;20312;-77
2023/10/19 02:48:17;;;;;;;421.43;162.03;;;;;;;;;;5019879;28;20216;-77
2023/10/19 02:50:43;;;;;;;438.17;168.73;;;;;;;;;;5020339;28;20708;-77
2023/10/19 02:53:12;;;;;;;441.30;171.27;;;;;;;;;;5013729;28;20240;-77
2023/10/19 02:55:40;;;;;;;427.40;161.47;;;;;;;;;;5016171;28;20800;-77
2023/10/19 02:58:06;;;;;;;414.03;152.53;;;;;;;;;;5017790;28;20203;-77
2023/10/19 03:00:36;;;;;;;461.20;178.77;;;;;;;;;;5013922;28;20212;-77
2023/10/19 03:03:05;;;;;;;447.13;173.27;;;;;;;;;;5017131;28;20229;-76
2023/10/19 03:05:31;;;;;;;469.47;184.60;;;;;;;;;;5016157;28;20768;-77
2023/10/19 03:07:58;;;;;;;382.50;146.40;;;;;;;;;;5019503;28;20206;-77
2023/10/19 03:10:34;;;;;;;452.33;181.40;;;;;;;;;;5014203;28;20618;-77
2023/10/19 03:13:01;;;;;;;414.47;157.43;;;;;;;;;;5014995;28;21371;-77
2023/10/19 03:15:30;;;;;;;440.83;170.73;;;;;;;;;;5013767;28;20224;-77
2023/10/19 03:17:56;;;;;;;418.80;160.37;;;;;;;;;;5018203;28;20240;-77
2023/10/19 03:20:25;;;;;;;455.20;179.60;;;;;;;;;;5016979;28;20254;-77
2023/10/19 03:22:51;;;;;;;406.43;153.13;;;;;;;;;;5020105;28;20252;-77
2023/10/19 03:28:08;;;;;;;425.57;165.93;;;;;;;;;;5012984;28;20334;-77
2023/10/19 03:30:38;;;;;;;452.97;180.57;;;;;;;;;;5016112;28;20748;-77
2023/10/19 03:33:04;;;;;;;421.07;161.60;;;;;;;;;;5017853;28;20324;-77
2023/10/19 03:35:30;;;;;;;461.10;183.13;;;;;;;;;;5012315;28;20228;-77
2023/10/19 03:38:00;;;;;;;411.03;157.60;;;;;;;;;;5014934;28;20235;-77
2023/10/19 03:40:32;;;;;;;442.23;173.13;;;;;;;;;;5019330;28;20274;-76
2023/10/19 03:42:58;;;;;;;417.53;160.53;;;;;;;;;;5016098;28;20254;-76
2023/10/19 03:45:25;;;;;;;440.47;173.40;;;;;;;;;;5014171;28;21946;-77
2023/10/19 03:47:53;;;;;;;417.67;158.23;;;;;;;;;;5014382;28;20212;-77
2023/10/19 03:50:22;;;;;;;403.93;154.53;;;;;;;;;;5015920;28;20245;-76
2023/10/19 03:52:48;;;;;;;445.93;172.27;;;;;;;;;;5009572;28;20216;-77
2023/10/19 03:55:23;;;;;;;402.17;151.10;;;;;;;;;;5015717;28;20327;-77
2023/10/19 03:57:55;;;;;;;409.40;155.63;;;;;;;;;;5015718;28;20231;-77
2023/10/19 04:00:24;;;;;;;418.83;158.27;;;;;;;;;;5016223;28;20333;-77
2023/10/19 04:02:55;;;;;;;416.33;157.73;;;;;;;;;;5017066;28;20307;-77
2023/10/19 04:05:26;;;;;;;422.10;163.33;;;;;;;;;;5014859;28;20240;-77
2023/10/19 04:07:55;;;;;;;445.00;175.17;;;;;;;;;;5012901;28;20259;-76
2023/10/19 04:10:38;;;;;;;422.50;160.77;;;;;;;;;;5017722;28;20177;-78
2023/10/19 04:13:04;;;;;;;411.47;154.67;;;;;;;;;;5013054;28;20227;-77
2023/10/19 04:15:35;;;;;;;456.63;178.60;;;;;;;;;;5015435;28;20342;-77
2023/10/19 04:18:01;;;;;;;421.07;162.63;;;;;;;;;;5017163;28;20685;-77
2023/10/19 04:20:35;;;;;;;415.03;156.50;;;;;;;;;;5014903;28;20212;-78
2023/10/19 04:23:10;;;;;;;446.30;174.87;;;;;;;;;;5017046;28;20239;-77
2023/10/19 04:25:36;;;;;;;432.43;167.47;;;;;;;;;;5011290;28;20263;-78
2023/10/19 04:28:03;;;;;;;436.47;167.83;;;;;;;;;;5013413;28;20712;-77
2023/10/19 04:30:29;;;;;;;466.37;182.67;;;;;;;;;;5016790;28;20220;-77
2023/10/19 04:32:57;;;;;;;444.90;171.70;;;;;;;;;;5013896;28;20230;-77
2023/10/19 04:35:24;;;;;;;448.97;171.53;;;;;;;;;;5010077;28;20644;-77
2023/10/19 04:37:51;;;;;;;409.83;155.47;;;;;;;;;;5015880;28;20239;-77
2023/10/19 04:40:19;;;;;;;405.40;153.87;;;;;;;;;;5013625;28;20200;-77
2023/10/19 04:42:46;;;;;;;436.43;170.77;;;;;;;;;;5010155;28;20216;-77
2023/10/19 04:45:12;;;;;;;436.70;174.47;;;;;;;;;;5015831;28;20231;-77
2023/10/19 04:47:39;;;;;;;436.53;173.07;;;;;;;;;;5014043;28;20587;-77
2023/10/19 04:50:05;;;;;;;451.17;175.87;;;;;;;;;;5014031;28;20212;-77
2023/10/19 04:52:32;;;;;;;410.87;156.93;;;;;;;;;;5008792;28;20270;-77
2023/10/19 04:54:58;;;;;;;405.40;153.93;;;;;;;;;;5015706;28;20752;-77
2023/10/19 04:57:25;;;;;;;451.47;181.17;;;;;;;;;;5012119;28;20693;-76
2023/10/19 04:59:51;;;;;;;438.73;170.87;;;;;;;;;;5015017;28;20239;-77
2023/10/19 05:02:17;;;;;;;429.90;159.13;;;;;;;;;;5014898;28;20586;-77
2023/10/19 05:04:43;;;;;;;439.00;174.23;;;;;;;;;;5015286;28;20224;-77
2023/10/19 05:07:12;;;;;;;402.87;150.03;;;;;;;;;;5011469;28;20191;-77
2023/10/19 05:09:39;;;;;;;416.77;158.80;;;;;;;;;;5013282;28;20854;-77
2023/10/19 05:12:09;;;;;;;420.83;160.10;;;;;;;;;;5013139;28;20216;-77
2023/10/19 05:14:35;;;;;;;455.60;179.50;;;;;;;;;;5015213;28;20224;-77
2023/10/19 05:17:04;;;;;;;412.27;156.13;;;;;;;;;;5011076;28;20211;-77
2023/10/19 05:19:30;;;;;;;436.10;167.30;;;;;;;;;;5016311;28;20254;-77
2023/10/19 05:21:56;;;;;;;411.30;153.20;;;;;;;;;;5011666;28;20180;-76
2023/10/19 05:24:22;;;;;;;450.73;178.83;;;;;;;;;;5011901;28;20238;-77
2023/10/19 05:26:49;;;;;;;440.07;168.43;;;;;;;;;;5013593;28;20273;-77
2023/10/19 05:29:15;;;;;;;435.57;163.57;;;;;;;;;;5009790;28;20412;-76
2023/10/19 05:31:41;;;;;;;452.63;174.03;;;;;;;;;;5011907;28;20331;-76
2023/10/19 05:34:08;;;;;;;405.40;155.30;;;;;;;;;;4998802;28;20220;-76
2023/10/19 05:36:34;;;;;;;460.37;189.53;;;;;;;;;;5011991;28;20590;-76
2023/10/19 05:39:00;;;;;;;446.80;170.20;;;;;;;;;;5011955;28;20235;-74
2023/10/19 05:41:26;;;;;;;409.03;156.93;;;;;;;;;;5013922;28;20208;-78
2023/10/19 05:43:53;;;;;;;442.50;172.13;;;;;;;;;;5010410;28;20220;-73
2023/10/19 05:46:21;;;;;;;419.70;158.10;;;;;;;;;;5012765;28;20184;-73
2023/10/19 05:48:52;;;;;;;429.43;161.10;;;;;;;;;;5015474;28;20220;-73
2023/10/19 05:51:18;;;;;;;409.00;157.57;;;;;;;;;;5017704;28;20212;-74
2023/10/19 05:53:44;;;;;;;435.53;170.27;;;;;;;;;;5017689;28;20230;-74
2023/10/19 05:56:11;;;;;;;374.50;139.43;;;;;;;;;;5021690;28;20262;-72
2023/10/19 05:58:37;;;;;;;428.10;169.33;;;;;;;;;;5015657;28;20191;-74
2023/10/19 06:01:03;;;;;;;394.23;151.43;;;;;;;;;;5020683;28;20788;-70
2023/10/19 06:03:29;;;;;;;455.87;178.50;;;;;;;;;;5008360;28;20277;-71
2023/10/19 06:05:56;;;;;;;384.30;144.90;;;;;;;;;;5023654;28;20270;-70
2023/10/19 06:08:25;;;;;;;393.90;148.03;;;;;;;;;;5023258;28;20290;-68
2023/10/19 06:10:54;;;;;;;415.40;158.67;;;;;;;;;;5020155;28;20256;-70
2023/10/19 06:13:21;;;;;;;410.90;155.93;;;;;;;;;;5022804;28;20219;-70
2023/10/19 06:15:48;;;;;;;403.80;151.97;;;;;;;;;;5016581;28;20254;-74
2023/10/19 06:18:14;;;;;;;425.83;162.43;;;;;;;;;;5021037;28;20220;-79
2023/10/19 06:20:47;;;;;;;434.77;167.97;;;;;;;;;;5022275;28;20223;-76
2023/10/19 06:23:13;;;;;;;388.73;145.23;;;;;;;;;;5023933;28;20648;-77
2023/10/19 06:25:39;;;;;;;433.57;169.40;;;;;;;;;;5022377;28;20190;-78
2023/10/19 06:28:07;;;;;;;406.43;151.33;;;;;;;;;;5021728;28;20214;-77
2023/10/19 06:30:33;;;;;;;422.43;164.40;;;;;;;;;;5015940;28;20767;-78
2023/10/19 06:33:03;;;;;;;435.07;162.57;;;;;;;;;;5018248;28;20225;-77
2023/10/19 06:35:31;;;;;;;478.83;189.23;;;;;;;;;;5024488;28;20254;-78
2023/10/19 06:37:58;;;;;;;407.00;150.73;;;;;;;;;;5021472;28;20298;-77
2023/10/19 06:40:26;;;;;;;417.07;158.97;;;;;;;;;;5022212;28;20188;-65
2023/10/19 06:42:53;;;;;;;445.60;176.87;;;;;;;;;;5000689;28;20211;-65
2023/10/19 06:45:19;;;;;;;452.20;179.43;;;;;;;;;;5015617;28;20558;-78
2023/10/19 06:47:47;;;;;;;463.57;187.97;;;;;;;;;;5019553;28;20252;-78
2023/10/19 06:50:15;;;;;;;408.77;157.27;;;;;;;;;;5018105;28;20234;-77
2023/10/19 06:52:42;;;;;;;430.73;169.90;;;;;;;;;;5011321;28;20688;-77
2023/10/19 06:55:16;;;;;;;424.60;160.40;;;;;;;;;;5018277;28;20203;-78
2023/10/19 06:57:45;;;;;;;470.90;192.97;;;;;;;;;;5014444;28;20703;-78
2023/10/19 07:00:18;;;;;;;445.10;174.93;;;;;;;;;;5016132;28;20690;-77
2023/10/19 07:02:44;;;;;;;487.40;195.00;;;;;;;;;;4996528;28;20223;-78
2023/10/19 07:05:11;;;;;;;408.33;154.67;;;;;;;;;;5014171;28;20212;-78
2023/10/19 07:07:39;;;;;;;463.27;180.77;;;;;;;;;;5016048;28;20764;-77
2023/10/19 07:10:06;;;;;;;407.57;152.93;;;;;;;;;;5015821;28;20180;-78
2023/10/19 07:12:32;;;;;;;569.43;245.33;;;;;;;;;;5009536;28;20843;-78
2023/10/19 07:15:00;;;;;;;426.83;162.10;;;;;;;;;;5008852;28;20363;-78
2023/10/19 07:17:27;;;;;;;444.70;177.60;;;;;;;;;;5018592;28;20242;-78
2023/10/19 07:19:53;;;;;;;434.73;169.73;;;;;;;;;;5005566;28;20220;-78
2023/10/19 07:22:22;;;;;;;441.60;168.77;;;;;;;;;;5015764;28;21326;-78
2023/10/19 07:24:48;;;;;;;401.33;148.80;;;;;;;;;;5019228;28;20227;-77
2023/10/19 07:27:18;;;;;;;431.07;160.53;;;;;;;;;;5016504;28;20270;-77
2023/10/19 07:29:44;;;;;;;473.57;189.37;;;;;;;;;;5013047;28;20216;-76
2023/10/19 07:32:16;;;;;;;426.33;161.63;;;;;;;;;;5018761;28;20856;-77
2023/10/19 07:34:44;;;;;;;460.90;183.80;;;;;;;;;;5010343;28;20231;-76
2023/10/19 07:37:14;;;;;;;459.20;179.50;;;;;;;;;;5012010;28;20257;-75
2023/10/19 07:39:42;;;;;;;450.50;174.27;;;;;;;;;;5017629;28;20223;-75
2023/10/19 07:42:08;;;;;;;463.67;185.17;;;;;;;;;;5017923;28;20213;-75
2023/10/19 07:44:34;;;;;;;403.80;152.97;;;;;;;;;;5020019;28;20208;-76
2023/10/19 07:47:00;;;;;;;424.20;159.67;;;;;;;;;;5029751;28;20885;-75
2023/10/19 07:49:26;;;;;;;413.70;155.00;;;;;;;;;;5017621;28;20184;-75
2023/10/19 07:51:52;;;;;;;458.03;184.80;;;;;;;;;;5029123;28;20289;-76
2023/10/19 07:54:18;;;;;;;475.33;192.23;;;;;;;;;;5025068;28;20257;-76
2023/10/19 07:56:44;;;;;;;444.53;169.30;;;;;;;;;;5024074;28;20240;-77
2023/10/19 07:59:12;;;;;;;447.43;176.97;;;;;;;;;;5016988;28;20271;-78
2023/10/19 08:01:38;;;;;;;459.77;182.30;;;;;;;;;;5026664;28;20176;-78
2023/10/19 08:04:04;;;;;;;455.57;182.17;;;;;;;;;;5017812;28;20565;-77
2023/10/19 08:06:31;;;;;;;426.87;162.60;;;;;;;;;;5025758;28;20220;-78
2023/10/19 08:08:57;;;;;;;453.63;171.07;;;;;;;;;;5026944;28;20258;-76
2023/10/19 08:11:23;;;;;;;427.50;160.20;;;;;;;;;;5029825;28;20203;-77
2023/10/19 08:13:49;;;;;;;483.63;189.23;;;;;;;;;;5025624;28;20212;-77
2023/10/19 08:16:16;;;;;;;462.37;179.03;;;;;;;;;;5029217;28;20215;-77
2023/10/19 08:18:42;;;;;;;458.70;183.33;;;;;;;;;;5025392;28;20212;-77
2023/10/19 08:21:08;;;;;;;419.60;159.27;;;;;;;;;;5030744;28;20220;-77
2023/10/19 08:23:34;;;;;;;469.20;186.03;;;;;;;;;;5015270;28;20211;-77
2023/10/19 08:26:00;;;;;;;471.23;185.37;;;;;;;;;;5035705;28;20231;-76
2023/10/19 08:28:27;;;;;;;424.20;161.23;;;;;;;;;;5033338;28;20180;-77
2023/10/19 08:31:02;;;;;;;493.13;201.40;;;;;;;;;;5027773;28;20233;-78
2023/10/19 08:33:29;;;;;;;421.87;162.17;;;;;;;;;;5024399;28;20679;-77
2023/10/19 08:35:56;;;;;;;419.43;158.00;;;;;;;;;;5032230;28;20242;-77
2023/10/19 08:38:23;;;;;;;399.43;153.43;;;;;;;;;;5032315;28;20211;-77
2023/10/19 08:40:49;;;;;;;425.90;164.23;;;;;;;;;;5035350;28;20216;-76
2023/10/19 08:43:18;;;;;;;459.13;178.57;;;;;;;;;;5031265;28;20529;-77
2023/10/19 08:45:44;;;;;;;441.93;172.33;;;;;;;;;;5034170;28;20207;-77
2023/10/19 08:48:11;;;;;;;474.17;189.33;;;;;;;;;;5035978;28;22789;-77
2023/10/19 08:50:41;;;;;;;439.03;173.67;;;;;;;;;;5030271;28;20219;-77
2023/10/19 08:53:14;;;;;;;448.07;177.30;;;;;;;;;;5031921;28;20323;-78
2023/10/19 08:55:40;;;;;;;469.67;190.83;;;;;;;;;;5030709;28;20207;-77
2023/10/19 08:58:06;;;;;;;453.47;181.77;;;;;;;;;;5031446;28;20179;-76
2023/10/19 09:01:09;;;;;;;462.57;183.80;;;;;;;;;;5023850;28;20205;-77
2023/10/19 09:03:35;;;;;;;448.10;182.67;;;;;;;;;;5012422;28;20219;-79
2023/10/19 09:06:05;;;;;;;392.23;150.87;;;;;;;;;;5020368;28;20726;-77
2023/10/19 09:08:41;;;;;;;479.50;193.80;;;;;;;;;;5014871;28;20212;-77
2023/10/19 09:11:13;;;;;;;425.73;163.57;;;;;;;;;;5023313;28;20709;-77
2023/10/19 09:13:46;;;;;;;480.47;199.47;;;;;;;;;;5017455;28;20287;-77
2023/10/19 09:16:12;;;;;;;486.03;197.30;;;;;;;;;;5015236;28;20204;-78
2023/10/19 09:18:39;;;;;;;447.77;177.67;;;;;;;;;;5012094;28;20212;-79
2023/10/19 09:21:07;;;;;;;423.63;162.77;;;;;;;;;;5020910;28;20212;-78
2023/10/19 09:23:33;;;;;;;425.37;165.77;;;;;;;;;;5014343;28;20780;-78
2023/10/19 09:26:03;;;;;;;474.37;189.87;;;;;;;;;;5015021;28;20227;-78
2023/10/19 09:28:30;;;;;;;409.67;158.23;;;;;;;;;;5010084;28;20180;-77
2023/10/19 09:30:56;;;;;;;404.80;153.17;;;;;;;;;;5010280;28;21608;-81
2023/10/19 09:33:24;;;;;;;484.50;198.70;;;;;;;;;;5013262;28;20370;-77
2023/10/19 09:35:56;;;;;;;426.83;166.87;;;;;;;;;;5014209;28;20269;-77
2023/10/19 09:38:22;;;;;;;416.10;161.47;;;;;;;;;;5020982;28;20265;-77
2023/10/19 09:40:51;;;;;;;471.73;190.53;;;;;;;;;;5009348;28;20223;-78
2023/10/19 09:43:26;;;;;;;427.90;164.43;;;;;;;;;;5020024;28;20301;-80
2023/10/19 09:45:53;;;;;;;465.73;184.93;;;;;;;;;;5011400;28;20215;-81
2023/10/19 09:48:20;;;;;;;431.33;169.03;;;;;;;;;;5015990;28;20208;-78
2023/10/19 09:50:51;;;;;;;446.53;174.37;;;;;;;;;;5018978;28;20216;-76
2023/10/19 09:53:18;;;;;;;441.40;171.27;;;;;;;;;;5030517;28;20791;-76
2023/10/19 09:55:45;;;;;;;457.03;181.23;;;;;;;;;;5010108;28;20901;-74
2023/10/19 09:58:20;;;;;;;421.43;165.70;;;;;;;;;;5017417;28;20215;-74
2023/10/19 10:00:46;;;;;;;462.03;185.73;;;;;;;;;;5014360;28;20227;-73
2023/10/19 10:03:32;;;;;;;452.47;180.10;;;;;;;;;;5006333;28;20227;-72
2023/10/19 10:05:57;;;;;;;424.30;164.50;;;;;;;;;;5002817;28;20215;-76
2023/10/19 10:08:23;;;;;;;440.80;173.97;;;;;;;;;;5018717;28;20570;-81
2023/10/19 10:10:51;;;;;;;445.33;175.57;;;;;;;;;;5010916;28;20254;-77
2023/10/19 10:13:31;;;;;;;417.03;157.70;;;;;;;;;;5019294;28;20219;-78
2023/10/19 10:15:58;;;;;;;418.50;160.30;;;;;;;;;;5016304;28;21527;-80
2023/10/19 10:18:24;;;;;;;430.97;163.20;;;;;;;;;;5006084;28;20223;-79
2023/10/19 10:21:06;;;;;;;443.23;174.77;;;;;;;;;;5012754;28;20216;-79
2023/10/19 10:23:32;;;;;;;445.40;178.73;;;;;;;;;;5014898;28;20212;-78
2023/10/19 10:25:58;;;;;;;436.87;173.13;;;;;;;;;;5015209;28;20258;-78
2023/10/19 10:28:24;;;;;;;418.77;159.60;;;;;;;;;;5004560;28;20216;-77
2023/10/19 10:31:09;;;;;;;477.47;194.73;;;;;;;;;;5012433;28;20255;-77
2023/10/19 10:33:46;;;;;;;460.67;184.23;;;;;;;;;;5010970;28;20355;-77
2023/10/19 10:36:12;;;;;;;428.27;168.17;;;;;;;;;;5015230;28;20875;-77
2023/10/19 10:38:39;;;;;;;432.93;165.87;;;;;;;;;;5019349;28;20212;-76
2023/10/19 10:41:05;;;;;;;455.17;180.83;;;;;;;;;;5017212;28;20287;-77
2023/10/19 10:43:31;;;;;;;459.83;185.50;;;;;;;;;;5015674;28;20266;-77
2023/10/19 10:46:03;;;;;;;592.60;258.93;;;;;;;;;;5007030;28;20181;-80
2023/10/19 10:48:30;;;;;;;419.97;160.50;;;;;;;;;;5011717;28;20208;-77
2023/10/19 10:50:56;;;;;;;426.63;167.37;;;;;;;;;;5013827;28;20212;-77
2023/10/19 10:53:26;;;;;;;448.53;175.03;;;;;;;;;;5015223;28;20235;-77
2023/10/19 10:55:53;;;;;;;441.33;174.63;;;;;;;;;;5014707;28;20224;-80
2023/10/19 10:58:19;;;;;;;430.40;165.60;;;;;;;;;;5020662;28;20189;-77
2023/10/19 11:00:51;;;;;;;452.23;179.57;;;;;;;;;;5012797;28;20220;-77
2023/10/19 11:03:17;;;;;;;455.67;185.23;;;;;;;;;;5009279;28;20216;-80
2023/10/19 11:05:45;;;;;;;460.03;185.53;;;;;;;;;;5013939;28;20219;-77
2023/10/19 11:08:14;;;;;;;395.33;150.30;;;;;;;;;;5018795;28;20225;-78
2023/10/19 11:10:46;;;;;;;446.87;181.17;;;;;;;;;;5018509;28;20294;-77
2023/10/19 11:13:13;;;;;;;424.00;167.90;;;;;;;;;;5017152;28;20227;-78
2023/10/19 11:15:39;;;;;;;420.77;166.90;;;;;;;;;;5019811;28;20228;-77
2023/10/19 11:18:09;;;;;;;503.20;208.40;;;;;;;;;;5017475;28;20216;-76
2023/10/19 11:20:35;;;;;;;449.57;183.40;;;;;;;;;;5019623;28;20220;-76
2023/10/19 11:23:02;;;;;;;433.17;168.03;;;;;;;;;;5017368;28;20219;-77
2023/10/19 11:25:29;;;;;;;477.77;195.90;;;;;;;;;;5008599;28;20196;-76
2023/10/19 11:27:59;;;;;;;468.10;189.93;;;;;;;;;;5012362;28;20224;-76
2023/10/19 11:30:26;;;;;;;427.03;165.70;;;;;;;;;;5013844;28;20378;-77
2023/10/19 11:32:56;;;;;;;467.47;189.10;;;;;;;;;;5019150;28;20224;-77
2023/10/19 11:35:22;;;;;;;417.57;161.30;;;;;;;;;;5015786;28;20974;-76
2023/10/19 11:37:49;;;;;;;440.87;169.07;;;;;;;;;;5017804;28;20331;-80
2023/10/19 11:40:15;;;;;;;493.97;205.33;;;;;;;;;;5017452;28;20246;-76
2023/10/19 11:42:41;;;;;;;420.30;163.63;;;;;;;;;;5016905;28;20220;-78
2023/10/19 11:45:08;;;;;;;514.33;217.60;;;;;;;;;;5015672;28;20718;-78
2023/10/19 11:47:34;;;;;;;453.63;185.17;;;;;;;;;;5015884;28;20211;-77
2023/10/19 11:50:00;;;;;;;491.93;203.67;;;;;;;;;;5014665;28;20689;-76
2023/10/19 11:52:27;;;;;;;450.30;178.87;;;;;;;;;;5016961;28;20195;-78
2023/10/19 11:54:54;;;;;;;571.83;252.60;;;;;;;;;;5010894;28;20219;-76
2023/10/19 11:57:20;;;;;;;493.00;206.03;;;;;;;;;;5010896;28;20204;-77
2023/10/19 11:59:52;;;;;;;424.30;168.30;;;;;;;;;;5019598;28;20212;-76
2023/10/19 12:02:18;;;;;;;414.77;158.37;;;;;;;;;;5012271;28;20212;-78
2023/10/19 12:04:45;;;;;;;467.87;187.83;;;;;;;;;;5005168;28;20222;-78
2023/10/19 12:07:11;;;;;;;421.47;164.17;;;;;;;;;;5012649;28;20304;-77
2023/10/19 12:09:36;;;;;;;440.20;171.67;;;;;;;;;;5019438;28;20777;-77
2023/10/19 12:12:05;;;;;;;455.13;178.57;;;;;;;;;;5010592;28;20212;-78
2023/10/19 12:14:34;;;;;;;507.30;210.57;;;;;;;;;;5007230;28;20219;-76
2023/10/19 12:17:01;;;;;;;540.43;226.93;;;;;;;;;;5010471;28;20224;-76
2023/10/19 12:19:28;;;;;;;421.90;161.53;;;;;;;;;;5034936;28;20350;-76
2023/10/19 12:21:55;;;;;;;460.97;190.70;;;;;;;;;;5038513;28;20665;-76
2023/10/19 12:24:21;;;;;;;363.30;151.50;;;;;;;;;;5044241;28;20286;-76
2023/10/19 12:27:08;;;;;;;355.60;146.73;;;;;;;;;;5045012;28;20219;-77
2023/10/19 12:29:34;;;;;;;427.33;166.07;;;;;;;;;;5028838;28;20207;-77
2023/10/19 12:32:00;;;;;;;432.73;163.60;;;;;;;;;;5035994;28;20211;-76
2023/10/19 12:34:29;;;;;;;458.37;180.33;;;;;;;;;;5032952;28;20211;-77
2023/10/19 12:36:57;;;;;;;435.57;169.13;;;;;;;;;;5039456;28;20229;-76
2023/10/19 12:39:35;;;;;;;423.50;162.80;;;;;;;;;;5034603;28;20884;-76
2023/10/19 12:42:01;;;;;;;429.67;167.60;;;;;;;;;;5036794;28;20223;-76
2023/10/19 12:44:37;;;;;;;417.67;162.87;;;;;;;;;;5034288;28;20215;-76
2023/10/19 12:47:04;;;;;;;427.60;167.33;;;;;;;;;;5035635;28;20866;-75
2023/10/19 12:49:30;;;;;;;441.10;171.40;;;;;;;;;;5032346;28;20179;-78
2023/10/19 12:51:56;;;;;;;531.07;225.53;;;;;;;;;;5036977;28;20237;-76
2023/10/19 12:54:22;;;;;;;440.33;176.13;;;;;;;;;;5034112;28;20220;-76
2023/10/19 12:56:49;;;;;;;425.50;165.50;;;;;;;;;;5038990;28;20930;-76
2023/10/19 12:59:17;;;;;;;438.33;168.17;;;;;;;;;;5027585;28;20215;-76
2023/10/19 13:01:48;;;;;;;425.60;161.27;;;;;;;;;;5032970;28;20298;-76
2023/10/19 13:04:14;;;;;;;413.93;154.77;;;;;;;;;;5024460;28;20222;-76
2023/10/19 13:06:40;;;;;;;428.70;163.63;;;;;;;;;;5033360;28;20215;-76
2023/10/19 13:09:09;;;;;;;439.47;170.10;;;;;;;;;;5034491;28;20219;-76
2023/10/19 13:11:34;;;;;;;438.57;170.40;;;;;;;;;;5040156;28;20211;-76
2023/10/19 13:14:00;;;;;;;552.30;232.73;;;;;;;;;;5031666;28;20226;-76
2023/10/19 13:16:27;;;;;;;417.10;159.63;;;;;;;;;;5023109;28;20295;-76
2023/10/19 13:18:53;;;;;;;422.40;160.93;;;;;;;;;;5033428;28;20183;-76
2023/10/19 13:21:25;;;;;;;407.47;155.53;;;;;;;;;;5034846;28;20224;-76
2023/10/19 13:23:52;;;;;;;433.03;166.90;;;;;;;;;;5039633;28;20216;-76
2023/10/19 13:26:18;;;;;;;403.73;152.63;;;;;;;;;;5032016;28;20748;-76
2023/10/19 13:28:44;;;;;;;428.10;167.37;;;;;;;;;;5016154;28;20311;-76
2023/10/19 13:31:11;;;;;;;400.07;153.40;;;;;;;;;;5020009;28;20851;-76
2023/10/19 13:33:37;;;;;;;425.83;163.87;;;;;;;;;;5021362;28;20277;-76
2023/10/19 13:36:05;;;;;;;450.00;177.63;;;;;;;;;;5020632;28;20211;-76
2023/10/19 13:38:31;;;;;;;413.00;155.13;;;;;;;;;;5023066;28;20275;-76
2023/10/19 13:40:57;;;;;;;431.50;166.80;;;;;;;;;;5021248;28;20319;-76
2023/10/19 13:43:23;;;;;;;422.10;161.60;;;;;;;;;;5020490;28;20227;-76
2023/10/19 13:45:49;;;;;;;415.97;158.10;;;;;;;;;;5020672;28;20220;-75
2023/10/19 13:48:15;;;;;;;428.27;163.07;;;;;;;;;;5032670;28;20730;-76
2023/10/19 13:50:47;;;;;;;433.43;166.53;;;;;;;;;;5031111;28;23568;-76
2023/10/19 13:53:13;;;;;;;407.50;155.97;;;;;;;;;;5038221;28;20890;-76
2023/10/19 13:55:39;;;;;;;427.73;166.80;;;;;;;;;;5034615;28;20304;-75
2023/10/19 13:58:08;;;;;;;440.23;174.70;;;;;;;;;;5038384;28;20948;-77
2023/10/19 14:03:01;;;;;;;409.77;158.80;;;;;;;;;;5027280;28;20217;-78
2023/10/19 14:05:28;;;;;;;404.67;155.50;;;;;;;;;;5016131;28;20195;-78
2023/10/19 14:07:54;;;;;;;440.40;175.43;;;;;;;;;;5009912;28;20212;-78
2023/10/19 14:10:21;;;;;;;429.07;170.50;;;;;;;;;;5020373;28;20273;-78
2023/10/19 14:12:48;;;;;;;441.37;173.60;;;;;;;;;;5029470;28;20348;-79